Tiger — 9HA2271 — position and weather

sailwx.info

Track history (hours):
 
Tides and Currents Weather Stations Pressure Air Temp Water Temp Dewpoint Dewpoint Depression Visibility Wind Speed Wind Dir Waves Ship Positions

Tiger

Last reported at 2017-Apr-26 05:52 UTC. Time now 2017-Apr-26 08:05 UTC.
Position N 50°23' W 006°01'.

Length 231 m; draft 8.8 m.

Type: Cargo ship. MMSI: 248223000.

Date/timePositionNaut miles runAvg speedWind from/ knotsBaromVisibWave heightAir tempDewpointWater temp
2017-Apr-26 05:52N 50°23' W 006°01'616.2
2017-Apr-26 05:30N 50°27' W 005°55'815.9
2017-Apr-26 05:00N 50°31' W 005°45'815.7
2017-Apr-26 04:30N 50°36' W 005°35'815.6
2017-Apr-26 04:00N 50°42' W 005°26'815.5
2017-Apr-26 03:30N 50°47' W 005°17'815.5
2017-Apr-26 03:00N 50°51' W 005°07'815.6
2017-Apr-26 02:30N 50°56' W 004°57'815.6
2017-Apr-26 02:00N 51°01' W 004°48'815.3
2017-Apr-26 01:30N 51°06' W 004°38'815.4
2017-Apr-26 01:00N 51°11' W 004°29'816.1
2017-Apr-26 00:30N 51°16' W 004°19'3815.1
2017-Apr-25 22:00N 51°21' W 003°19'714.5
2017-Apr-25 21:30N 51°22' W 003°08'1019.5
2017-Apr-25 21:00N 51°28' W 002°55'815.2
2017-Apr-25 20:30N 51°30' W 002°44'0 0.3
2017-Apr-25 20:00N 51°30' W 002°43'0 0.5
2017-Apr-25 19:28N 51°30' W 002°43'0 0.0
2017-Apr-25 18:58N 51°30' W 002°43'0 0.0
2017-Apr-25 18:28N 51°30' W 002°43'0 0.0
2017-Apr-25 17:58N 51°30' W 002°43'0 0.0
2017-Apr-25 17:28N 51°30' W 002°43'0 0.0
2017-Apr-25 16:58N 51°30' W 002°43'0 0.0
2017-Apr-25 16:28N 51°30' W 002°43'0 0.0
2017-Apr-25 15:58N 51°30' W 002°43'0 0.0
2017-Apr-25 15:28N 51°30' W 002°43'0 0.0
2017-Apr-25 14:58N 51°30' W 002°43'0 0.0
2017-Apr-25 14:28N 51°30' W 002°43'0 0.0
2017-Apr-25 13:28N 51°30' W 002°43'0 0.0
2017-Apr-25 12:58N 51°30' W 002°43'0 0.0
2017-Apr-25 12:28N 51°30' W 002°43'0 0.0
2017-Apr-25 11:58N 51°30' W 002°43'0 0.0
2017-Apr-25 11:28N 51°30' W 002°43'0 0.0
2017-Apr-25 10:58N 51°30' W 002°43'0 0.0
2017-Apr-25 10:28N 51°30' W 002°43'0 0.0
2017-Apr-25 09:58N 51°30' W 002°43'0 0.0
2017-Apr-25 09:28N 51°30' W 002°43'0 0.0
2017-Apr-25 08:58N 51°30' W 002°43'0 0.0
2017-Apr-25 08:28N 51°30' W 002°43'0 0.0
2017-Apr-25 07:58N 51°30' W 002°43'0 0.0
2017-Apr-25 07:28N 51°30' W 002°43'0 0.0
2017-Apr-25 06:58N 51°30' W 002°43'0 0.0
2017-Apr-25 06:28N 51°30' W 002°43'0 0.0
2017-Apr-25 05:58N 51°30' W 002°43'0 0.0
2017-Apr-25 05:28N 51°30' W 002°43'0 0.0
2017-Apr-25 05:00N 51°30' W 002°43'0 0.7
2017-Apr-25 04:30N 51°30' W 002°43'0 0.5
2017-Apr-25 04:00N 51°30' W 002°44'0 0.8
2017-Apr-25 03:30N 51°30' W 002°44'612.1
2017-Apr-25 03:01N 51°28' W 002°53'1018.9
2017-Apr-25 02:30N 51°23' W 003°05'2813.7
2017-Apr-25 00:28N 51°19' W 003°50'1117.2
2017-Apr-24 23:49N 51°19' W 004°07'515.7
2017-Apr-24 23:30N 51°17' W 004°15'815.8
2017-Apr-24 23:00N 51°12' W 004°25'815.8
2017-Apr-24 22:31N 51°07' W 004°34'815.4
2017-Apr-24 22:00N 51°02' W 004°43'815.2
2017-Apr-24 21:30N 50°57' W 004°52'714.7
2017-Apr-24 21:01N 50°52' W 005°01'714.4
2017-Apr-24 20:30N 50°47' W 005°09'714.3
2017-Apr-24 20:00N 50°43' W 005°18'714.5
2017-Apr-24 19:31N 50°38' W 005°27'714.8
2017-Apr-24 19:00N 50°33' W 005°35'815.4
2017-Apr-24 18:30N 50°28' W 005°44'815.4
2017-Apr-24 17:59N 50°22' W 005°53'48317.2
2017-Apr-23 13:57N 42°47' W 009°48'817.3
2017-Apr-23 13:31N 42°39' W 009°48'917.2
2017-Apr-23 13:00N 42°31' W 009°48'917.3
2017-Apr-23 12:30N 42°22' W 009°48'917.4
2017-Apr-23 12:00N 42°13' W 009°47'917.7
2017-Apr-23 11:30N 42°04' W 009°47'917.7
2017-Apr-23 11:00N 41°55' W 009°47'1117.7
2017-Apr-23 10:24N 41°45' W 009°47'717.9
2017-Apr-23 10:00N 41°38' W 009°49'917.5
2017-Apr-23 09:30N 41°29' W 009°49'917.7
2017-Apr-23 09:00N 41°20' W 009°48'917.7
2017-Apr-23 08:31N 41°11' W 009°48'917.4
2017-Apr-23 08:00N 41°03' W 009°48'917.8
2017-Apr-23 07:30N 40°54' W 009°48'918.1
2017-Apr-23 07:00N 40°45' W 009°47'917.5
2017-Apr-23 06:30N 40°36' W 009°48'917.7
2017-Apr-23 06:01N 40°27' W 009°48'917.6
2017-Apr-23 05:30N 40°18' W 009°49'917.7
2017-Apr-23 04:59N 40°09' W 009°48'917.9
2017-Apr-23 04:30N 40°01' W 009°48'917.9
2017-Apr-23 04:01N 39°52' W 009°48'917.6
2017-Apr-23 03:30N 39°43' W 009°49'917.8
2017-Apr-23 03:00N 39°34' W 009°50'918.0
2017-Apr-23 02:30N 39°25' W 009°50'917.8
2017-Apr-23 02:00N 39°16' W 009°50'917.9
2017-Apr-23 01:31N 39°07' W 009°50'917.9
2017-Apr-23 01:00N 38°58' W 009°50'917.9
2017-Apr-23 00:30N 38°49' W 009°50'917.8
2017-Apr-23 00:01N 38°40' W 009°50'918.3
2017-Apr-22 23:30N 38°31' W 009°48'918.4
2017-Apr-22 23:00N 38°22' W 009°46'918.2
2017-Apr-22 22:30N 38°14' W 009°42'917.8
2017-Apr-22 22:00N 38°05' W 009°40'918.0
2017-Apr-22 21:30N 37°56' W 009°38'917.8
2017-Apr-22 21:00N 37°48' W 009°35'918.2
2017-Apr-22 20:31N 37°39' W 009°32'918.2
2017-Apr-22 20:00N 37°30' W 009°29'20416.8
2017-Apr-22 07:52N 35°58' W 005°41'720.1
2017-Apr-22 07:30N 35°59' W 005°32'918.8
2017-Apr-22 07:00N 36°01' W 005°21'918.6
2017-Apr-22 06:30N 36°03' W 005°10'918.2
2017-Apr-22 05:59N 36°03' W 004°58'90918.4
2017-Apr-20 04:35N 36°35' E 013°49'819.2
2017-Apr-20 04:10N 36°32' E 013°59'319.2
2017-Apr-20 04:00N 36°31' E 014°02'1019.2
2017-Apr-20 03:30N 36°28' E 014°13'1019.0
2017-Apr-20 03:00N 36°25' E 014°25'919.2
2017-Apr-20 02:30N 36°22' E 014°36'1019.4
2017-Apr-20 02:00N 36°21' E 014°48'45017.4
2017-Apr-19 00:12N 37°13' E 024°06'518.5
2017-Apr-18 23:57N 37°16' E 024°10'2618.9
2017-Apr-18 22:35N 37°37' E 024°29'219.2
2017-Apr-18 22:30N 37°38' E 024°29'1019.0
2017-Apr-18 22:00N 37°48' E 024°32'919.3
2017-Apr-18 21:30N 37°56' E 024°37'1 0.0
2017-Apr-17 15:31N 37°56' E 024°36'014.3
2017-Apr-17 15:29N 37°56' E 024°36'714.0
2017-Apr-17 14:58N 37°51' E 024°29'1514.5
2017-Apr-17 13:54N 37°41' E 024°15'1413.9
2017-Apr-17 12:53N 37°35' E 023°58'614.7
2017-Apr-17 12:30N 37°36' E 023°51'713.4
2017-Apr-17 12:00N 37°39' E 023°44'510.0
2017-Apr-17 11:30N 37°44' E 023°41'714.0
2017-Apr-17 11:01N 37°50' E 023°37'713.0
2017-Apr-17 10:30N 37°56' E 023°36'1 1.7
2017-Apr-17 09:39N 37°58' E 023°36'0 0.0
2017-Apr-17 09:27N 37°58' E 023°36'0 0.0
2017-Apr-17 08:57N 37°58' E 023°36'0 0.0
2017-Apr-17 07:45N 37°58' E 023°36'0 0.0
2017-Apr-17 05:54N 37°58' E 023°36'1 2.1
2017-Apr-17 05:31N 37°57' E 023°36'2 4.3
2017-Apr-17 05:01N 37°55' E 023°36'0 0.4
2017-Apr-17 04:31N 37°55' E 023°37'0 0.5
2017-Apr-17 04:01N 37°55' E 023°36'0 0.3
2017-Apr-17 03:30N 37°55' E 023°36'1 1.7
2017-Apr-17 03:00N 37°54' E 023°37'2 4.4
2017-Apr-17 02:30N 37°52' E 023°39'510.4
2017-Apr-17 02:01N 37°48' E 023°41'5 9.9
2017-Apr-17 01:31N 37°43' E 023°44'7 5.0
2017-Apr-17 00:07N 37°39' E 023°52'0 0.5
2017-Apr-16 23:48N 37°39' E 023°52'0 0.5
2017-Apr-16 23:20N 37°39' E 023°51'0 0.1
2017-Apr-16 22:54N 37°39' E 023°51'0 0.6
2017-Apr-16 22:30N 37°39' E 023°51'0 0.3
2017-Apr-16 22:00N 37°39' E 023°51'0 0.4
2017-Apr-16 21:30N 37°39' E 023°51'0 0.4
2017-Apr-16 20:59N 37°39' E 023°51'0 0.5
2017-Apr-16 20:18N 37°39' E 023°51'1 2.5
2017-Apr-16 19:57N 37°38' E 023°52'2 4.4
2017-Apr-16 19:30N 37°37' E 023°54'1 1.9
2017-Apr-16 18:58N 37°37' E 023°55'0 0.8
2017-Apr-16 18:30N 37°37' E 023°55'1 1.0
2017-Apr-16 17:53N 37°36' E 023°54'0 1.2
2017-Apr-16 17:30N 37°36' E 023°54'1 1.1
2017-Apr-16 16:55N 37°35' E 023°55'1 2.0
2017-Apr-16 16:30N 37°35' E 023°56'0 0.8
2017-Apr-16 15:57N 37°34' E 023°56'1 2.9
2017-Apr-16 15:30N 37°35' E 023°58'1 0.7
2017-Apr-16 14:33N 37°35' E 023°58'1 1.3
2017-Apr-16 14:00N 37°35' E 023°57'1 1.2
2017-Apr-16 13:30N 37°35' E 023°57'1 1.1
2017-Apr-16 13:00N 37°35' E 023°56'1 1.1
2017-Apr-16 12:30N 37°34' E 023°55'0 0.8
2017-Apr-16 12:00N 37°34' E 023°55'0 0.3
2017-Apr-16 10:47N 37°35' E 023°55'0 0.7
2017-Apr-16 10:30N 37°34' E 023°55'0 0.7
2017-Apr-16 10:00N 37°34' E 023°55'0 0.5
2017-Apr-16 09:01N 37°34' E 023°56'0 0.7
2017-Apr-16 08:33N 37°35' E 023°56'0 2.7
2017-Apr-16 08:30N 37°35' E 023°56'1 0.8
2017-Apr-16 07:43N 37°35' E 023°56'0 0.7
2017-Apr-16 07:20N 37°35' E 023°56'0 0.7
2017-Apr-16 07:00N 37°35' E 023°56'0 0.6
2017-Apr-16 06:24N 37°34' E 023°56'0 0.6
2017-Apr-16 05:56N 37°34' E 023°56'  
Track history (hours):
 
Tides and Currents Weather Stations Pressure Air Temp Water Temp Dewpoint Dewpoint Depression Visibility Wind Speed Wind Dir Waves Ship Positions

Tiger

Last reported at 2017-Apr-26 05:52 UTC. Time now 2017-Apr-26 08:05 UTC.
Position N 50°23' W 006°01'.

Length 231 m; draft 8.8 m.

Type: Cargo ship. MMSI: 248223000.

Date/timePositionNaut miles runAvg speedWind from/ knotsBaromVisibWave heightAir tempDewpointWater temp
2017-Apr-26 05:52N 50°23' W 006°01'616.2
2017-Apr-26 05:30N 50°27' W 005°55'815.9
2017-Apr-26 05:00N 50°31' W 005°45'815.7
2017-Apr-26 04:30N 50°36' W 005°35'815.6
2017-Apr-26 04:00N 50°42' W 005°26'815.5
2017-Apr-26 03:30N 50°47' W 005°17'815.5
2017-Apr-26 03:00N 50°51' W 005°07'815.6
2017-Apr-26 02:30N 50°56' W 004°57'815.6
2017-Apr-26 02:00N 51°01' W 004°48'815.3
2017-Apr-26 01:30N 51°06' W 004°38'815.4
2017-Apr-26 01:00N 51°11' W 004°29'816.1
2017-Apr-26 00:30N 51°16' W 004°19'3815.1
2017-Apr-25 22:00N 51°21' W 003°19'714.5
2017-Apr-25 21:30N 51°22' W 003°08'1019.5
2017-Apr-25 21:00N 51°28' W 002°55'815.2
2017-Apr-25 20:30N 51°30' W 002°44'0 0.3
2017-Apr-25 20:00N 51°30' W 002°43'0 0.5
2017-Apr-25 19:28N 51°30' W 002°43'0 0.0
2017-Apr-25 18:58N 51°30' W 002°43'0 0.0
2017-Apr-25 18:28N 51°30' W 002°43'0 0.0
2017-Apr-25 17:58N 51°30' W 002°43'0 0.0
2017-Apr-25 17:28N 51°30' W 002°43'0 0.0
2017-Apr-25 16:58N 51°30' W 002°43'0 0.0
2017-Apr-25 16:28N 51°30' W 002°43'0 0.0
2017-Apr-25 15:58N 51°30' W 002°43'0 0.0
2017-Apr-25 15:28N 51°30' W 002°43'0 0.0
2017-Apr-25 14:58N 51°30' W 002°43'0 0.0
2017-Apr-25 14:28N 51°30' W 002°43'0 0.0
2017-Apr-25 13:28N 51°30' W 002°43'0 0.0
2017-Apr-25 12:58N 51°30' W 002°43'0 0.0
2017-Apr-25 12:28N 51°30' W 002°43'0 0.0
2017-Apr-25 11:58N 51°30' W 002°43'0 0.0
2017-Apr-25 11:28N 51°30' W 002°43'0 0.0
2017-Apr-25 10:58N 51°30' W 002°43'0 0.0
2017-Apr-25 10:28N 51°30' W 002°43'0 0.0
2017-Apr-25 09:58N 51°30' W 002°43'0 0.0
2017-Apr-25 09:28N 51°30' W 002°43'0 0.0
2017-Apr-25 08:58N 51°30' W 002°43'0 0.0
2017-Apr-25 08:28N 51°30' W 002°43'0 0.0
2017-Apr-25 07:58N 51°30' W 002°43'0 0.0
2017-Apr-25 07:28N 51°30' W 002°43'0 0.0
2017-Apr-25 06:58N 51°30' W 002°43'0 0.0
2017-Apr-25 06:28N 51°30' W 002°43'0 0.0
2017-Apr-25 05:58N 51°30' W 002°43'0 0.0
2017-Apr-25 05:28N 51°30' W 002°43'0 0.0
2017-Apr-25 05:00N 51°30' W 002°43'0 0.7
2017-Apr-25 04:30N 51°30' W 002°43'0 0.5
2017-Apr-25 04:00N 51°30' W 002°44'0 0.8
2017-Apr-25 03:30N 51°30' W 002°44'612.1
2017-Apr-25 03:01N 51°28' W 002°53'1018.9
2017-Apr-25 02:30N 51°23' W 003°05'2813.7
2017-Apr-25 00:28N 51°19' W 003°50'1117.2
2017-Apr-24 23:49N 51°19' W 004°07'515.7
2017-Apr-24 23:30N 51°17' W 004°15'815.8
2017-Apr-24 23:00N 51°12' W 004°25'815.8
2017-Apr-24 22:31N 51°07' W 004°34'815.4
2017-Apr-24 22:00N 51°02' W 004°43'815.2
2017-Apr-24 21:30N 50°57' W 004°52'714.7
2017-Apr-24 21:01N 50°52' W 005°01'714.4
2017-Apr-24 20:30N 50°47' W 005°09'714.3
2017-Apr-24 20:00N 50°43' W 005°18'714.5
2017-Apr-24 19:31N 50°38' W 005°27'714.8
2017-Apr-24 19:00N 50°33' W 005°35'815.4
2017-Apr-24 18:30N 50°28' W 005°44'815.4
2017-Apr-24 17:59N 50°22' W 005°53'48317.2
2017-Apr-23 13:57N 42°47' W 009°48'817.3
2017-Apr-23 13:31N 42°39' W 009°48'917.2
2017-Apr-23 13:00N 42°31' W 009°48'917.3
2017-Apr-23 12:30N 42°22' W 009°48'917.4
2017-Apr-23 12:00N 42°13' W 009°47'917.7
2017-Apr-23 11:30N 42°04' W 009°47'917.7
2017-Apr-23 11:00N 41°55' W 009°47'1117.7
2017-Apr-23 10:24N 41°45' W 009°47'717.9
2017-Apr-23 10:00N 41°38' W 009°49'917.5
2017-Apr-23 09:30N 41°29' W 009°49'917.7
2017-Apr-23 09:00N 41°20' W 009°48'917.7
2017-Apr-23 08:31N 41°11' W 009°48'917.4
2017-Apr-23 08:00N 41°03' W 009°48'917.8
2017-Apr-23 07:30N 40°54' W 009°48'918.1
2017-Apr-23 07:00N 40°45' W 009°47'917.5
2017-Apr-23 06:30N 40°36' W 009°48'917.7
2017-Apr-23 06:01N 40°27' W 009°48'917.6
2017-Apr-23 05:30N 40°18' W 009°49'917.7
2017-Apr-23 04:59N 40°09' W 009°48'917.9
2017-Apr-23 04:30N 40°01' W 009°48'917.9
2017-Apr-23 04:01N 39°52' W 009°48'917.6
2017-Apr-23 03:30N 39°43' W 009°49'917.8
2017-Apr-23 03:00N 39°34' W 009°50'918.0
2017-Apr-23 02:30N 39°25' W 009°50'917.8
2017-Apr-23 02:00N 39°16' W 009°50'917.9
2017-Apr-23 01:31N 39°07' W 009°50'917.9
2017-Apr-23 01:00N 38°58' W 009°50'917.9
2017-Apr-23 00:30N 38°49' W 009°50'917.8
2017-Apr-23 00:01N 38°40' W 009°50'918.3
2017-Apr-22 23:30N 38°31' W 009°48'918.4
2017-Apr-22 23:00N 38°22' W 009°46'918.2
2017-Apr-22 22:30N 38°14' W 009°42'917.8
2017-Apr-22 22:00N 38°05' W 009°40'918.0
2017-Apr-22 21:30N 37°56' W 009°38'917.8
2017-Apr-22 21:00N 37°48' W 009°35'918.2
2017-Apr-22 20:31N 37°39' W 009°32'918.2
2017-Apr-22 20:00N 37°30' W 009°29'20416.8
2017-Apr-22 07:52N 35°58' W 005°41'720.1
2017-Apr-22 07:30N 35°59' W 005°32'918.8
2017-Apr-22 07:00N 36°01' W 005°21'918.6
2017-Apr-22 06:30N 36°03' W 005°10'918.2
2017-Apr-22 05:59N 36°03' W 004°58'90918.4
2017-Apr-20 04:35N 36°35' E 013°49'819.2
2017-Apr-20 04:10N 36°32' E 013°59'319.2
2017-Apr-20 04:00N 36°31' E 014°02'1019.2
2017-Apr-20 03:30N 36°28' E 014°13'1019.0
2017-Apr-20 03:00N 36°25' E 014°25'919.2
2017-Apr-20 02:30N 36°22' E 014°36'1019.4
2017-Apr-20 02:00N 36°21' E 014°48'45017.4
2017-Apr-19 00:12N 37°13' E 024°06'518.5
2017-Apr-18 23:57N 37°16' E 024°10'2618.9
2017-Apr-18 22:35N 37°37' E 024°29'219.2
2017-Apr-18 22:30N 37°38' E 024°29'1019.0
2017-Apr-18 22:00N 37°48' E 024°32'919.3
2017-Apr-18 21:30N 37°56' E 024°37'1 0.0
2017-Apr-17 15:31N 37°56' E 024°36'014.3
2017-Apr-17 15:29N 37°56' E 024°36'714.0
2017-Apr-17 14:58N 37°51' E 024°29'1514.5
2017-Apr-17 13:54N 37°41' E 024°15'1413.9
2017-Apr-17 12:53N 37°35' E 023°58'614.7
2017-Apr-17 12:30N 37°36' E 023°51'713.4
2017-Apr-17 12:00N 37°39' E 023°44'510.0
2017-Apr-17 11:30N 37°44' E 023°41'714.0
2017-Apr-17 11:01N 37°50' E 023°37'713.0
2017-Apr-17 10:30N 37°56' E 023°36'1 1.7
2017-Apr-17 09:39N 37°58' E 023°36'0 0.0
2017-Apr-17 09:27N 37°58' E 023°36'0 0.0
2017-Apr-17 08:57N 37°58' E 023°36'0 0.0
2017-Apr-17 07:45N 37°58' E 023°36'0 0.0
2017-Apr-17 05:54N 37°58' E 023°36'1 2.1
2017-Apr-17 05:31N 37°57' E 023°36'2 4.3
2017-Apr-17 05:01N 37°55' E 023°36'0 0.4
2017-Apr-17 04:31N 37°55' E 023°37'0 0.5
2017-Apr-17 04:01N 37°55' E 023°36'0 0.3
2017-Apr-17 03:30N 37°55' E 023°36'1 1.7
2017-Apr-17 03:00N 37°54' E 023°37'2 4.4
2017-Apr-17 02:30N 37°52' E 023°39'510.4
2017-Apr-17 02:01N 37°48' E 023°41'5 9.9
2017-Apr-17 01:31N 37°43' E 023°44'7 5.0
2017-Apr-17 00:07N 37°39' E 023°52'0 0.5
2017-Apr-16 23:48N 37°39' E 023°52'0 0.5
2017-Apr-16 23:20N 37°39' E 023°51'0 0.1
2017-Apr-16 22:54N 37°39' E 023°51'0 0.6
2017-Apr-16 22:30N 37°39' E 023°51'0 0.3
2017-Apr-16 22:00N 37°39' E 023°51'0 0.4
2017-Apr-16 21:30N 37°39' E 023°51'0 0.4
2017-Apr-16 20:59N 37°39' E 023°51'0 0.5
2017-Apr-16 20:18N 37°39' E 023°51'1 2.5
2017-Apr-16 19:57N 37°38' E 023°52'2 4.4
2017-Apr-16 19:30N 37°37' E 023°54'1 1.9
2017-Apr-16 18:58N 37°37' E 023°55'0 0.8
2017-Apr-16 18:30N 37°37' E 023°55'1 1.0
2017-Apr-16 17:53N 37°36' E 023°54'0 1.2
2017-Apr-16 17:30N 37°36' E 023°54'1 1.1
2017-Apr-16 16:55N 37°35' E 023°55'1 2.0
2017-Apr-16 16:30N 37°35' E 023°56'0 0.8
2017-Apr-16 15:57N 37°34' E 023°56'1 2.9
2017-Apr-16 15:30N 37°35' E 023°58'1 0.7
2017-Apr-16 14:33N 37°35' E 023°58'1 1.3
2017-Apr-16 14:00N 37°35' E 023°57'1 1.2
2017-Apr-16 13:30N 37°35' E 023°57'1 1.1
2017-Apr-16 13:00N 37°35' E 023°56'1 1.1
2017-Apr-16 12:30N 37°34' E 023°55'0 0.8
2017-Apr-16 12:00N 37°34' E 023°55'0 0.3
2017-Apr-16 10:47N 37°35' E 023°55'0 0.7
2017-Apr-16 10:30N 37°34' E 023°55'0 0.7
2017-Apr-16 10:00N 37°34' E 023°55'0 0.5
2017-Apr-16 09:01N 37°34' E 023°56'0 0.7
2017-Apr-16 08:33N 37°35' E 023°56'0 2.7
2017-Apr-16 08:30N 37°35' E 023°56'1 0.8
2017-Apr-16 07:43N 37°35' E 023°56'0 0.7
2017-Apr-16 07:20N 37°35' E 023°56'0 0.7
2017-Apr-16 07:00N 37°35' E 023°56'0 0.6
2017-Apr-16 06:24N 37°34' E 023°56'0 0.6
2017-Apr-16 05:56N 37°34' E 023°56'  

Dump ship's entire track history